sensor_id;sensor_type;location;lat;lon;timestamp;pressure;altitude;pressure_sealevel;temperature;humidity
6869;BME280;3473;42.604;23.496;2022-09-12T00:00:49;22662.91;;;-140.19;93.99
6869;BME280;3473;42.604;23.496;2022-09-12T00:02:41;22414.28;;;-140.19;93.14
6869;BME280;3473;42.604;23.496;2022-09-12T00:04:33;22538.59;;;-140.19;93.66
6869;BME280;3473;42.604;23.496;2022-09-12T00:06:28;22587.16;;;-140.19;93.74
6869;BME280;3473;42.604;23.496;2022-09-12T00:08:20;22725.06;;;-140.19;93.94
6869;BME280;3473;42.604;23.496;2022-09-12T00:10:11;22554.13;;;-140.19;93.74
6869;BME280;3473;42.604;23.496;2022-09-12T00:12:04;22468.66;;;-140.19;93.16
6869;BME280;3473;42.604;23.496;2022-09-12T00:13:57;22532.75;;;-140.19;93.25
6869;BME280;3473;42.604;23.496;2022-09-12T00:15:49;22657.09;;;-140.19;93.31
6869;BME280;3473;42.604;23.496;2022-09-12T00:17:41;22457.00;;;-140.19;92.98
6869;BME280;3473;42.604;23.496;2022-09-12T00:19:33;22480.31;;;-140.19;92.69
6869;BME280;3473;42.604;23.496;2022-09-12T00:21:27;22422.03;;;-140.19;92.46
6869;BME280;3473;42.604;23.496;2022-09-12T00:23:19;22424.00;;;-140.19;92.82
6869;BME280;3473;42.604;23.496;2022-09-12T00:25:11;22488.09;;;-140.19;92.92
6869;BME280;3473;42.604;23.496;2022-09-12T00:27:03;22845.53;;;-140.19;92.81
6869;BME280;3473;42.604;23.496;2022-09-12T00:28:55;22608.53;;;-140.19;92.92
6869;BME280;3473;42.604;23.496;2022-09-12T00:30:48;22740.63;;;-140.19;93.28
6869;BME280;3473;42.604;23.496;2022-09-12T00:32:40;22736.72;;;-140.19;93.25
6869;BME280;3473;42.604;23.496;2022-09-12T00:34:32;23057.28;;;-140.19;93.70
6869;BME280;3473;42.604;23.496;2022-09-12T00:36:25;22915.44;;;-140.19;93.73
6869;BME280;3473;42.604;23.496;2022-09-12T00:38:19;22814.44;;;-140.19;93.17
6869;BME280;3473;42.604;23.496;2022-09-12T00:40:11;22804.72;;;-140.19;93.35
6869;BME280;3473;42.604;23.496;2022-09-12T00:42:03;22979.56;;;-140.19;93.14
6869;BME280;3473;42.604;23.496;2022-09-12T00:43:57;22695.94;;;-140.19;93.07
6869;BME280;3473;42.604;23.496;2022-09-12T00:45:49;22847.47;;;-140.19;92.89
6869;BME280;3473;42.604;23.496;2022-09-12T00:47:42;22929.06;;;-140.19;93.63
6869;BME280;3473;42.604;23.496;2022-09-12T00:49:39;22828.03;;;-140.19;93.78
6869;BME280;3473;42.604;23.496;2022-09-12T00:51:36;23150.53;;;-140.19;93.74
6869;BME280;3473;42.604;23.496;2022-09-12T00:53:30;23090.31;;;-140.19;93.59
6869;BME280;3473;42.604;23.496;2022-09-12T00:55:24;22884.38;;;-140.19;93.14
6869;BME280;3473;42.604;23.496;2022-09-12T00:57:20;22938.75;;;-140.19;93.18
6869;BME280;3473;42.604;23.496;2022-09-12T00:59:16;23080.59;;;-140.19;93.26
6869;BME280;3473;42.604;23.496;2022-09-12T01:01:09;22954.31;;;-140.19;93.03
6869;BME280;3473;42.604;23.496;2022-09-12T01:03:05;23020.38;;;-140.19;93.37
6869;BME280;3473;42.604;23.496;2022-09-12T01:04:58;22958.19;;;-140.19;93.15
6869;BME280;3473;42.604;23.496;2022-09-12T01:06:50;22763.94;;;-140.19;92.91
6869;BME280;3473;42.604;23.496;2022-09-12T01:08:46;23072.81;;;-140.19;92.87
6869;BME280;3473;42.604;23.496;2022-09-12T01:10:39;22767.81;;;-140.19;92.71
6869;BME280;3473;42.604;23.496;2022-09-12T01:12:33;23049.50;;;-140.19;92.49
6869;BME280;3473;42.604;23.496;2022-09-12T01:14:29;22802.78;;;-140.19;92.54
6869;BME280;3473;42.604;23.496;2022-09-12T01:16:21;22820.25;;;-140.19;92.46
6869;BME280;3473;42.604;23.496;2022-09-12T01:18:20;22831.91;;;-140.19;92.00
6869;BME280;3473;42.604;23.496;2022-09-12T01:20:33;22771.69;;;-140.19;91.88
6869;BME280;3473;42.604;23.496;2022-09-12T01:22:40;22812.50;;;-140.19;91.54
6869;BME280;3473;42.604;23.496;2022-09-12T01:24:59;22931.00;;;-140.19;91.47
6869;BME280;3473;42.604;23.496;2022-09-12T01:27:25;22732.84;;;-140.19;91.02
6869;BME280;3473;42.604;23.496;2022-09-12T01:29:43;22934.88;;;-140.19;90.74
6869;BME280;3473;42.604;23.496;2022-09-12T01:31:48;22771.69;;;-140.19;90.60
6869;BME280;3473;42.604;23.496;2022-09-12T01:33:55;22763.94;;;-140.19;90.73
6869;BME280;3473;42.604;23.496;2022-09-12T01:35:56;22810.56;;;-140.19;90.90
6869;BME280;3473;42.604;23.496;2022-09-12T01:37:57;22979.56;;;-140.19;90.61
6869;BME280;3473;42.604;23.496;2022-09-12T01:40:02;22870.78;;;-140.19;90.67
6869;BME280;3473;42.604;23.496;2022-09-12T01:42:07;23055.34;;;-140.19;90.72
6869;BME280;3473;42.604;23.496;2022-09-12T01:44:07;22927.09;;;-140.19;90.45
6869;BME280;3473;42.604;23.496;2022-09-12T01:46:07;23457.50;;;-140.19;90.09
6869;BME280;3473;42.604;23.496;2022-09-12T01:48:07;22756.16;;;-140.19;90.21
6869;BME280;3473;42.604;23.496;2022-09-12T01:50:05;22723.13;;;-140.19;90.54
6869;BME280;3473;42.604;23.496;2022-09-12T01:51:59;22822.22;;;-140.19;90.41
6869;BME280;3473;42.604;23.496;2022-09-12T01:53:58;22921.28;;;-140.19;90.50
6869;BME280;3473;42.604;23.496;2022-09-12T01:55:57;22899.91;;;-140.19;90.57
6869;BME280;3473;42.604;23.496;2022-09-12T01:57:56;22884.38;;;-140.19;90.64
6869;BME280;3473;42.604;23.496;2022-09-12T01:59:53;22804.72;;;-140.19;90.56
6869;BME280;3473;42.604;23.496;2022-09-12T02:01:50;22985.38;;;-140.19;91.01
6869;BME280;3473;42.604;23.496;2022-09-12T02:03:49;23103.91;;;-140.19;90.67
6869;BME280;3473;42.604;23.496;2022-09-12T02:05:50;23094.19;;;-140.19;90.82
6869;BME280;3473;42.604;23.496;2022-09-12T02:07:45;23201.03;;;-140.19;90.82
6869;BME280;3473;42.604;23.496;2022-09-12T02:09:44;22882.44;;;-140.19;90.96
6869;BME280;3473;42.604;23.496;2022-09-12T02:11:40;22241.41;;;-140.19;91.03
6869;BME280;3473;42.604;23.496;2022-09-12T02:13:38;23292.34;;;-140.19;91.28
6869;BME280;3473;42.604;23.496;2022-09-12T02:15:37;23119.44;;;-140.19;91.14
6869;BME280;3473;42.604;23.496;2022-09-12T02:17:31;22899.91;;;-140.19;91.07
6869;BME280;3473;42.604;23.496;2022-09-12T02:19:33;23226.31;;;-140.19;91.46
6869;BME280;3473;42.604;23.496;2022-09-12T02:21:28;22962.06;;;-140.19;91.15
6869;BME280;3473;42.604;23.496;2022-09-12T02:23:26;22991.22;;;-140.19;91.17
6869;BME280;3473;42.604;23.496;2022-09-12T02:25:21;22981.50;;;-140.19;91.58
6869;BME280;3473;42.604;23.496;2022-09-12T02:27:16;23146.66;;;-140.19;90.84
6869;BME280;3473;42.604;23.496;2022-09-12T02:29:11;23257.38;;;-140.19;90.71
6869;BME280;3473;42.604;23.496;2022-09-12T02:31:10;23026.19;;;-140.19;90.17
6869;BME280;3473;42.604;23.496;2022-09-12T02:33:06;23047.56;;;-140.19;90.24
6869;BME280;3473;42.604;23.496;2022-09-12T02:35:06;23068.94;;;-140.19;90.70
6869;BME280;3473;42.604;23.496;2022-09-12T02:37:05;23084.47;;;-140.19;90.62
6869;BME280;3473;42.604;23.496;2022-09-12T02:38:58;23140.81;;;-140.19;90.89
6869;BME280;3473;42.604;23.496;2022-09-12T02:40:49;23103.91;;;-140.19;90.82
6869;BME280;3473;42.604;23.496;2022-09-12T02:42:42;22948.47;;;-140.19;91.07
6869;BME280;3473;42.604;23.496;2022-09-12T02:44:34;23103.91;;;-140.19;90.91
6869;BME280;3473;42.604;23.496;2022-09-12T02:46:31;23243.78;;;-140.19;91.23
6869;BME280;3473;42.604;23.496;2022-09-12T02:48:26;23094.19;;;-140.19;90.78
6869;BME280;3473;42.604;23.496;2022-09-12T02:50:22;23018.41;;;-140.19;90.68
6869;BME280;3473;42.604;23.496;2022-09-12T02:52:14;23123.31;;;-140.19;90.99
6869;BME280;3473;42.604;23.496;2022-09-12T02:54:07;23088.34;;;-140.19;90.99
6869;BME280;3473;42.604;23.496;2022-09-12T02:56:00;22876.59;;;-140.19;90.95
6869;BME280;3473;42.604;23.496;2022-09-12T02:57:52;23173.84;;;-140.19;90.76
6869;BME280;3473;42.604;23.496;2022-09-12T02:59:44;23026.19;;;-140.19;90.72
6869;BME280;3473;42.604;23.496;2022-09-12T03:01:51;22913.50;;;-140.19;90.49
6869;BME280;3473;42.604;23.496;2022-09-12T03:03:58;22995.09;;;-140.19;90.24
6869;BME280;3473;42.604;23.496;2022-09-12T03:05:58;22929.06;;;-140.19;90.04
6869;BME280;3473;42.604;23.496;2022-09-12T03:10:18;23049.50;;;-140.19;89.97
6869;BME280;3473;42.604;23.496;2022-09-12T03:12:30;22907.69;;;-140.19;89.83
6869;BME280;3473;42.604;23.496;2022-09-12T03:14:35;23140.81;;;-140.19;90.33
6869;BME280;3473;42.604;23.496;2022-09-12T03:16:34;23127.22;;;-140.19;90.05
6869;BME280;3473;42.604;23.496;2022-09-12T03:18:39;23136.94;;;-140.19;90.22
6869;BME280;3473;42.604;23.496;2022-09-12T03:20:43;22964.03;;;-140.19;90.29
6869;BME280;3473;42.604;23.496;2022-09-12T03:22:45;23133.03;;;-140.19;90.62
6869;BME280;3473;42.604;23.496;2022-09-12T03:24:45;23243.78;;;-140.19;90.35
6869;BME280;3473;42.604;23.496;2022-09-12T03:26:43;23055.34;;;-140.19;90.45
6869;BME280;3473;42.604;23.496;2022-09-12T03:28:39;22923.22;;;-140.19;90.52
6869;BME280;3473;42.604;23.496;2022-09-12T03:30:36;23282.66;;;-140.19;90.59
6869;BME280;3473;42.604;23.496;2022-09-12T03:32:45;23148.59;;;-140.19;90.49
6869;BME280;3473;42.604;23.496;2022-09-12T03:34:37;23109.72;;;-140.19;90.49
6869;BME280;3473;42.604;23.496;2022-09-12T03:36:30;23057.28;;;-140.19;90.29
6869;BME280;3473;42.604;23.496;2022-09-12T03:38:23;23253.50;;;-140.19;90.05
6869;BME280;3473;42.604;23.496;2022-09-12T03:40:15;23391.44;;;-140.19;89.98
6869;BME280;3473;42.604;23.496;2022-09-12T03:42:07;23187.44;;;-140.19;89.97
6869;BME280;3473;42.604;23.496;2022-09-12T03:43:59;23302.06;;;-140.19;90.23
6869;BME280;3473;42.604;23.496;2022-09-12T03:45:51;23556.59;;;-140.19;90.61
6869;BME280;3473;42.604;23.496;2022-09-12T03:47:43;23509.97;;;-140.19;90.64
6869;BME280;3473;42.604;23.496;2022-09-12T03:49:36;23469.16;;;-140.19;91.01
6869;BME280;3473;42.604;23.496;2022-09-12T03:51:28;23325.38;;;-140.19;91.10
6869;BME280;3473;42.604;23.496;2022-09-12T03:53:20;23508.03;;;-140.19;91.34
6869;BME280;3473;42.604;23.496;2022-09-12T03:55:14;23488.59;;;-140.19;91.45
6869;BME280;3473;42.604;23.496;2022-09-12T03:57:07;23471.09;;;-140.19;91.53
6869;BME280;3473;42.604;23.496;2022-09-12T03:58:59;23556.59;;;-140.19;91.71
6869;BME280;3473;42.604;23.496;2022-09-12T04:00:51;23455.56;;;-140.19;91.72
6869;BME280;3473;42.604;23.496;2022-09-12T04:02:43;23459.44;;;-140.19;91.82
6869;BME280;3473;42.604;23.496;2022-09-12T04:04:35;23455.56;;;-140.19;91.72
6869;BME280;3473;42.604;23.496;2022-09-12T04:06:27;23548.84;;;-140.19;91.60
6869;BME280;3473;42.604;23.496;2022-09-12T04:08:19;23348.69;;;-140.19;91.78
6869;BME280;3473;42.604;23.496;2022-09-12T04:10:11;23595.47;;;-140.19;91.98
6869;BME280;3473;42.604;23.496;2022-09-12T04:12:05;23564.38;;;-140.19;91.98
6869;BME280;3473;42.604;23.496;2022-09-12T04:13:57;23488.59;;;-140.19;91.98
6869;BME280;3473;42.604;23.496;2022-09-12T04:15:55;23546.88;;;-140.19;92.08
6869;BME280;3473;42.604;23.496;2022-09-12T04:17:47;23628.50;;;-140.19;92.35
6869;BME280;3473;42.604;23.496;2022-09-12T04:19:41;23657.66;;;-140.19;92.15
6869;BME280;3473;42.604;23.496;2022-09-12T04:21:33;23731.47;;;-140.19;92.27
6869;BME280;3473;42.604;23.496;2022-09-12T04:23:25;23659.59;;;-140.19;92.35
6869;BME280;3473;42.604;23.496;2022-09-12T04:25:17;23502.19;;;-140.19;91.65
6869;BME280;3473;42.604;23.496;2022-09-12T04:27:11;23799.50;;;-140.19;91.63
6869;BME280;3473;42.604;23.496;2022-09-12T04:29:03;23537.16;;;-140.19;91.63
6869;BME280;3473;42.604;23.496;2022-09-12T04:30:55;23902.50;;;-140.19;91.65
6869;BME280;3473;42.604;23.496;2022-09-12T04:32:47;23638.22;;;-140.19;91.49
6869;BME280;3473;42.604;23.496;2022-09-12T04:34:39;23762.56;;;-140.19;91.43
6869;BME280;3473;42.604;23.496;2022-09-12T04:36:31;23593.53;;;-140.19;91.77
6869;BME280;3473;42.604;23.496;2022-09-12T04:38:24;23737.31;;;-140.19;91.65
6869;BME280;3473;42.604;23.496;2022-09-12T04:40:16;23638.22;;;-140.19;91.67
6869;BME280;3473;42.604;23.496;2022-09-12T04:42:08;23758.69;;;-140.19;91.85
6869;BME280;3473;42.604;23.496;2022-09-12T04:44:04;23647.94;;;-140.19;91.43
6869;BME280;3473;42.604;23.496;2022-09-12T04:46:03;23572.16;;;-140.19;91.26
6869;BME280;3473;42.604;23.496;2022-09-12T04:47:56;23704.28;;;-140.19;91.16
6869;BME280;3473;42.604;23.496;2022-09-12T04:49:48;23603.25;;;-140.19;90.92
6869;BME280;3473;42.604;23.496;2022-09-12T04:51:41;23747.03;;;-140.19;90.66
6869;BME280;3473;42.604;23.496;2022-09-12T04:53:33;23407.00;;;-140.19;89.66
6869;BME280;3473;42.604;23.496;2022-09-12T04:55:26;23298.19;;;-140.19;89.48
6869;BME280;3473;42.604;23.496;2022-09-12T04:57:18;23420.59;;;-140.19;88.93
6869;BME280;3473;42.604;23.496;2022-09-12T04:59:13;23366.19;;;-140.19;89.16
6869;BME280;3473;42.604;23.496;2022-09-12T05:01:06;23315.66;;;-140.19;87.99
6869;BME280;3473;42.604;23.496;2022-09-12T05:02:58;22983.44;;;-140.19;87.02
6869;BME280;3473;42.604;23.496;2022-09-12T05:04:50;22958.19;;;-140.19;86.16
6869;BME280;3473;42.604;23.496;2022-09-12T05:06:43;22997.03;;;-140.19;85.88
6869;BME280;3473;42.604;23.496;2022-09-12T05:08:37;23090.31;;;-140.19;85.26
6869;BME280;3473;42.604;23.496;2022-09-12T05:10:29;22938.75;;;-140.19;84.90
6869;BME280;3473;42.604;23.496;2022-09-12T05:12:21;22896.03;;;-140.19;82.84
6869;BME280;3473;42.604;23.496;2022-09-12T05:14:14;22728.97;;;-140.19;82.62
6869;BME280;3473;42.604;23.496;2022-09-12T05:16:09;22872.72;;;-140.19;82.54
6869;BME280;3473;42.604;23.496;2022-09-12T05:18:02;22969.84;;;-140.19;81.89
6869;BME280;3473;42.604;23.496;2022-09-12T05:19:53;22789.19;;;-140.19;81.19
6869;BME280;3473;42.604;23.496;2022-09-12T05:21:46;22826.09;;;-140.19;80.37
6869;BME280;3473;42.604;23.496;2022-09-12T05:23:38;22781.41;;;-140.19;79.96
6869;BME280;3473;42.604;23.496;2022-09-12T05:25:30;22760.03;;;-140.19;78.91
6869;BME280;3473;42.604;23.496;2022-09-12T05:27:22;22863.00;;;-140.19;79.36
6869;BME280;3473;42.604;23.496;2022-09-12T05:29:15;22561.91;;;-140.19;79.74
6869;BME280;3473;42.604;23.496;2022-09-12T05:31:11;22600.75;;;-140.19;78.61
6869;BME280;3473;42.604;23.496;2022-09-12T05:33:03;22462.84;;;-140.19;78.17
6869;BME280;3473;42.604;23.496;2022-09-12T05:34:55;22732.84;;;-140.19;77.80
6869;BME280;3473;42.604;23.496;2022-09-12T05:36:47;22523.06;;;-140.19;77.37
6869;BME280;3473;42.604;23.496;2022-09-12T05:38:40;22499.75;;;-140.19;76.61
6869;BME280;3473;42.604;23.496;2022-09-12T05:40:32;22525.00;;;-140.19;76.86
6869;BME280;3473;42.604;23.496;2022-09-12T05:42:25;22344.34;;;-140.19;76.02
6869;BME280;3473;42.604;23.496;2022-09-12T05:44:21;22532.75;;;-140.19;76.01
6869;BME280;3473;42.604;23.496;2022-09-12T05:46:16;22420.09;;;-140.19;74.73
6869;BME280;3473;42.604;23.496;2022-09-12T05:48:08;22424.00;;;-140.19;74.06
6869;BME280;3473;42.604;23.496;2022-09-12T05:50:00;22507.50;;;-140.19;73.49
6869;BME280;3473;42.604;23.496;2022-09-12T05:51:55;22851.34;;;-140.19;74.11
6869;BME280;3473;42.604;23.496;2022-09-12T05:53:49;22707.59;;;-140.19;72.36
6869;BME280;3473;42.604;23.496;2022-09-12T05:55:42;22688.16;;;-140.19;73.30
6869;BME280;3473;42.604;23.496;2022-09-12T05:57:34;22713.41;;;-140.19;72.64
6869;BME280;3473;42.604;23.496;2022-09-12T05:59:27;22544.41;;;-140.19;71.86
6869;BME280;3473;42.604;23.496;2022-09-12T06:01:19;22594.94;;;-140.19;70.69
6869;BME280;3473;42.604;23.496;2022-09-12T06:03:12;22525.00;;;-140.19;70.56
6869;BME280;3473;42.604;23.496;2022-09-12T06:05:04;22324.94;;;-140.19;70.98
6869;BME280;3473;42.604;23.496;2022-09-12T06:06:56;22369.59;;;-140.19;70.48
6869;BME280;3473;42.604;23.496;2022-09-12T06:08:50;22719.25;;;-140.19;70.04
6869;BME280;3473;42.604;23.496;2022-09-12T06:10:42;22387.09;;;-140.19;69.82
6869;BME280;3473;42.604;23.496;2022-09-12T06:12:34;22548.31;;;-140.19;70.12
6869;BME280;3473;42.604;23.496;2022-09-12T06:14:28;22540.53;;;-140.19;70.88
6869;BME280;3473;42.604;23.496;2022-09-12T06:16:21;22618.25;;;-140.19;69.84
6869;BME280;3473;42.604;23.496;2022-09-12T06:18:15;22453.13;;;-140.19;69.75
6869;BME280;3473;42.604;23.496;2022-09-12T06:20:07;22629.88;;;-140.19;69.04
6869;BME280;3473;42.604;23.496;2022-09-12T06:22:00;22495.84;;;-140.19;68.81
6869;BME280;3473;42.604;23.496;2022-09-12T06:23:54;22284.13;;;-140.19;67.14
6869;BME280;3473;42.604;23.496;2022-09-12T06:25:47;22422.03;;;-140.19;65.93
6869;BME280;3473;42.604;23.496;2022-09-12T06:27:42;22381.25;;;-140.19;65.29
6869;BME280;3473;42.604;23.496;2022-09-12T06:29:37;22342.41;;;-140.19;64.87
6869;BME280;3473;42.604;23.496;2022-09-12T06:31:31;22334.63;;;-140.19;64.82
6869;BME280;3473;42.604;23.496;2022-09-12T06:33:23;22493.91;;;-140.19;63.33
6869;BME280;3473;42.604;23.496;2022-09-12T06:35:15;22569.69;;;-140.19;62.95
6869;BME280;3473;42.604;23.496;2022-09-12T06:37:07;22501.69;;;-140.19;62.64
6869;BME280;3473;42.604;23.496;2022-09-12T06:39:00;22639.59;;;-140.19;62.22
6869;BME280;3473;42.604;23.496;2022-09-12T06:40:53;22561.91;;;-140.19;61.78
6869;BME280;3473;42.604;23.496;2022-09-12T06:42:45;22554.13;;;-140.19;61.36
6869;BME280;3473;42.604;23.496;2022-09-12T06:44:39;22589.09;;;-140.19;61.94
6869;BME280;3473;42.604;23.496;2022-09-12T06:46:32;22447.31;;;-140.19;60.73
6869;BME280;3473;42.604;23.496;2022-09-12T06:48:24;22449.25;;;-140.19;60.85
6869;BME280;3473;42.604;23.496;2022-09-12T06:50:16;22433.69;;;-140.19;60.79
6869;BME280;3473;42.604;23.496;2022-09-12T06:52:08;22728.97;;;-140.19;61.37
6869;BME280;3473;42.604;23.496;2022-09-12T06:54:00;22571.63;;;-140.19;62.89
6869;BME280;3473;42.604;23.496;2022-09-12T06:55:56;22610.47;;;-140.19;63.22
6869;BME280;3473;42.604;23.496;2022-09-12T06:57:48;22563.84;;;-140.19;63.61
6869;BME280;3473;42.604;23.496;2022-09-12T06:59:42;22581.31;;;-140.19;64.73
6869;BME280;3473;42.604;23.496;2022-09-12T07:01:34;22633.78;;;-140.19;65.57
6869;BME280;3473;42.604;23.496;2022-09-12T07:03:27;22810.56;;;-140.19;66.43
6869;BME280;3473;42.604;23.496;2022-09-12T07:05:19;22761.97;;;-140.19;67.41
6869;BME280;3473;42.604;23.496;2022-09-12T07:07:11;22929.06;;;-140.19;67.50
6869;BME280;3473;42.604;23.496;2022-09-12T07:09:05;22779.47;;;-140.19;66.58
6869;BME280;3473;42.604;23.496;2022-09-12T07:10:59;22760.03;;;-140.19;65.88
6869;BME280;3473;42.604;23.496;2022-09-12T07:12:52;22620.19;;;-140.19;65.69
6869;BME280;3473;42.604;23.496;2022-09-12T07:14:45;22903.81;;;-140.19;66.32
6869;BME280;3473;42.604;23.496;2022-09-12T07:16:37;22585.22;;;-140.19;67.00
6869;BME280;3473;42.604;23.496;2022-09-12T07:18:29;22851.34;;;-140.19;67.05
6869;BME280;3473;42.604;23.496;2022-09-12T07:20:21;22680.41;;;-140.19;67.28
6869;BME280;3473;42.604;23.496;2022-09-12T07:22:13;22915.44;;;-140.19;66.80
6869;BME280;3473;42.604;23.496;2022-09-12T07:24:06;22744.50;;;-140.19;67.48
6869;BME280;3473;42.604;23.496;2022-09-12T07:26:00;21806.38;;;-140.19;67.14
6869;BME280;3473;42.604;23.496;2022-09-12T07:27:52;22849.41;;;-140.19;67.50
6869;BME280;3473;42.604;23.496;2022-09-12T07:29:47;22938.75;;;-140.19;67.95
6869;BME280;3473;42.604;23.496;2022-09-12T07:31:39;22777.53;;;-140.19;67.66
6869;BME280;3473;42.604;23.496;2022-09-12T07:33:31;23179.66;;;-140.19;68.55
6869;BME280;3473;42.604;23.496;2022-09-12T07:35:23;22845.53;;;-140.19;67.88
6869;BME280;3473;42.604;23.496;2022-09-12T07:37:15;22791.13;;;-140.19;67.39
6869;BME280;3473;42.604;23.496;2022-09-12T07:39:07;22777.53;;;-140.19;65.42
6869;BME280;3473;42.604;23.496;2022-09-12T07:40:59;22831.91;;;-140.19;64.96
6869;BME280;3473;42.604;23.496;2022-09-12T07:42:51;22581.31;;;-140.19;63.53
6869;BME280;3473;42.604;23.496;2022-09-12T07:44:43;22488.09;;;-140.19;64.55
6869;BME280;3473;42.604;23.496;2022-09-12T07:46:37;22907.69;;;-140.19;65.85
6869;BME280;3473;42.604;23.496;2022-09-12T07:48:29;22449.25;;;-140.19;65.08
6869;BME280;3473;42.604;23.496;2022-09-12T07:50:21;22592.97;;;-140.19;64.48
6869;BME280;3473;42.604;23.496;2022-09-12T07:52:13;22701.75;;;-140.19;64.79
6869;BME280;3473;42.604;23.496;2022-09-12T07:54:06;22639.59;;;-140.19;64.79
6869;BME280;3473;42.604;23.496;2022-09-12T07:55:59;22880.50;;;-140.19;64.36
6869;BME280;3473;42.604;23.496;2022-09-12T07:57:52;22787.25;;;-140.19;64.25
6869;BME280;3473;42.604;23.496;2022-09-12T07:59:45;22674.56;;;-140.19;63.82
6869;BME280;3473;42.604;23.496;2022-09-12T08:01:38;22674.56;;;-140.19;63.18
6869;BME280;3473;42.604;23.496;2022-09-12T08:03:31;22678.47;;;-140.19;62.17
6869;BME280;3473;42.604;23.496;2022-09-12T08:05:23;22490.03;;;-140.19;60.52
6869;BME280;3473;42.604;23.496;2022-09-12T08:07:16;22352.13;;;-140.19;60.22
6869;BME280;3473;42.604;23.496;2022-09-12T08:09:09;22534.72;;;-140.19;60.75
6869;BME280;3473;42.604;23.496;2022-09-12T08:11:03;22728.97;;;-140.19;61.13
6869;BME280;3473;42.604;23.496;2022-09-12T08:12:56;22583.28;;;-140.19;61.99
6869;BME280;3473;42.604;23.496;2022-09-12T08:14:49;22645.44;;;-140.19;61.11
6869;BME280;3473;42.604;23.496;2022-09-12T08:16:43;22707.59;;;-140.19;61.99
6869;BME280;3473;42.604;23.496;2022-09-12T08:18:35;22839.69;;;-140.19;62.67
6869;BME280;3473;42.604;23.496;2022-09-12T08:20:27;22771.69;;;-140.19;62.14
6869;BME280;3473;42.604;23.496;2022-09-12T08:22:19;22620.19;;;-140.19;61.48
6869;BME280;3473;42.604;23.496;2022-09-12T08:24:11;22554.13;;;-140.19;61.51
6869;BME280;3473;42.604;23.496;2022-09-12T08:26:04;22418.16;;;-140.19;61.23
6869;BME280;3473;42.604;23.496;2022-09-12T08:27:56;22760.03;;;-140.19;60.97
6869;BME280;3473;42.604;23.496;2022-09-12T08:29:48;22810.56;;;-140.19;60.73
6869;BME280;3473;42.604;23.496;2022-09-12T08:31:42;22929.06;;;-140.19;61.11
6869;BME280;3473;42.604;23.496;2022-09-12T08:33:36;22911.56;;;-140.19;60.35
6869;BME280;3473;42.604;23.496;2022-09-12T08:35:28;22641.53;;;-140.19;59.67
6869;BME280;3473;42.604;23.496;2022-09-12T08:37:20;22631.84;;;-140.19;59.04
6869;BME280;3473;42.604;23.496;2022-09-12T08:39:13;22443.41;;;-140.19;59.27
6869;BME280;3473;42.604;23.496;2022-09-12T08:41:10;22616.28;;;-140.19;59.52
6869;BME280;3473;42.604;23.496;2022-09-12T08:43:09;22705.66;;;-140.19;60.20
6869;BME280;3473;42.604;23.496;2022-09-12T08:45:16;22938.75;;;-140.19;59.29
6869;BME280;3473;42.604;23.496;2022-09-12T08:47:24;22736.72;;;-140.19;58.52
6869;BME280;3473;42.604;23.496;2022-09-12T08:49:24;22653.19;;;-140.19;57.87
6869;BME280;3473;42.604;23.496;2022-09-12T08:51:19;22377.38;;;-140.19;56.18
6869;BME280;3473;42.604;23.496;2022-09-12T08:53:13;22829.97;;;-140.19;55.40
6869;BME280;3473;42.604;23.496;2022-09-12T08:55:24;22538.59;;;-140.19;56.74
6869;BME280;3473;42.604;23.496;2022-09-12T08:57:16;22851.34;;;-140.19;57.70
6869;BME280;3473;42.604;23.496;2022-09-12T08:59:08;22929.06;;;-140.19;57.60
6869;BME280;3473;42.604;23.496;2022-09-12T09:01:06;22927.09;;;-140.19;55.54
6869;BME280;3473;42.604;23.496;2022-09-12T09:03:28;22820.25;;;-140.19;53.31
6869;BME280;3473;42.604;23.496;2022-09-12T09:05:36;22523.06;;;-140.19;51.93
6869;BME280;3473;42.604;23.496;2022-09-12T09:07:53;22606.59;;;-140.19;51.62
6869;BME280;3473;42.604;23.496;2022-09-12T09:10:01;22676.50;;;-140.19;53.07
6869;BME280;3473;42.604;23.496;2022-09-12T09:12:06;22554.13;;;-140.19;53.05
6869;BME280;3473;42.604;23.496;2022-09-12T09:14:10;22565.78;;;-140.19;53.47
6869;BME280;3473;42.604;23.496;2022-09-12T09:16:26;22664.84;;;-140.19;52.05
6869;BME280;3473;42.604;23.496;2022-09-12T09:18:23;22585.22;;;-140.19;51.43
6869;BME280;3473;42.604;23.496;2022-09-12T09:20:23;22643.50;;;-140.19;51.17
6869;BME280;3473;42.604;23.496;2022-09-12T09:22:26;22627.94;;;-140.19;49.02
6869;BME280;3473;42.604;23.496;2022-09-12T09:24:26;22338.53;;;-140.19;49.00
6869;BME280;3473;42.604;23.496;2022-09-12T09:26:22;22179.25;;;-140.19;48.48
6869;BME280;3473;42.604;23.496;2022-09-12T09:28:20;22404.56;;;-140.19;49.90
6869;BME280;3473;42.604;23.496;2022-09-12T09:30:15;22567.72;;;-140.19;50.93
6869;BME280;3473;42.604;23.496;2022-09-12T09:32:12;22356.00;;;-140.19;51.16
6869;BME280;3473;42.604;23.496;2022-09-12T09:34:12;22394.84;;;-140.19;51.93
6869;BME280;3473;42.604;23.496;2022-09-12T09:36:14;22425.94;;;-140.19;51.46
6869;BME280;3473;42.604;23.496;2022-09-12T09:38:17;22431.75;;;-140.19;50.83
6869;BME280;3473;42.604;23.496;2022-09-12T09:40:18;22414.28;;;-140.19;51.42
6869;BME280;3473;42.604;23.496;2022-09-12T09:42:20;22721.19;;;-140.19;51.75
6869;BME280;3473;42.604;23.496;2022-09-12T09:44:16;22594.94;;;-140.19;52.09
6869;BME280;3473;42.604;23.496;2022-09-12T09:46:08;22674.56;;;-140.19;53.01
6869;BME280;3473;42.604;23.496;2022-09-12T09:48:09;22635.72;;;-140.19;52.29
6869;BME280;3473;42.604;23.496;2022-09-12T09:50:08;22610.47;;;-140.19;52.72
6869;BME280;3473;42.604;23.496;2022-09-12T09:52:05;22511.41;;;-140.19;52.60
6869;BME280;3473;42.604;23.496;2022-09-12T09:54:01;22952.38;;;-140.19;52.20
6869;BME280;3473;42.604;23.496;2022-09-12T09:55:55;22507.50;;;-140.19;51.51
6869;BME280;3473;42.604;23.496;2022-09-12T09:57:49;22676.50;;;-140.19;51.51
6869;BME280;3473;42.604;23.496;2022-09-12T09:59:42;22682.34;;;-140.19;50.88
6869;BME280;3473;42.604;23.496;2022-09-12T10:01:34;22575.50;;;-140.19;50.33
6869;BME280;3473;42.604;23.496;2022-09-12T10:03:32;22513.34;;;-140.19;50.92
6869;BME280;3473;42.604;23.496;2022-09-12T10:05:27;22853.28;;;-140.19;49.63